Time;durP1;ratioP1;P1;durP2;ratioP2;P2;SDS_P1;SDS_P2;PMS_P1;PMS_P2;Temp;Humidity;BMP_temperature;BMP_pressure;BME280_temperature;BME280_humidity;BME280_pressure;Samples;Min_cycle;Max_cycle;Signal;HPM_P1;HPM_P2
2021/09/23 00:01:31;;;;;;;56.88;41.80;;;;;;;;;;5131402;27;20039;-81
2021/09/23 00:04:02;;;;;;;65.38;45.38;;;;;;;;;;5106947;27;20042;-80
2021/09/23 00:06:28;;;;;;;57.47;42.42;;;;;;;;;;5134231;27;20051;-80
2021/09/23 00:08:55;;;;;;;56.20;42.58;;;;;;;;;;5129349;27;20044;-81
2021/09/23 00:11:21;;;;;;;67.25;46.53;;;;;;;;;;5124347;27;20031;-81
2021/09/23 00:13:47;;;;;;;64.47;44.00;;;;;;;;;;5127328;27;20051;-82
2021/09/23 00:16:13;;;;;;;68.47;46.25;;;;;;;;;;5136593;27;20075;-81
2021/09/23 00:18:39;;;;;;;62.22;46.10;;;;;;;;;;5119682;27;20046;-81
2021/09/23 00:21:06;;;;;;;64.80;44.95;;;;;;;;;;5111760;27;20043;-81
2021/09/23 00:23:33;;;;;;;64.80;47.05;;;;;;;;;;5112759;27;20051;-81
2021/09/23 00:25:59;;;;;;;62.13;45.13;;;;;;;;;;5118000;27;20054;-81
2021/09/23 00:28:25;;;;;;;66.57;47.97;;;;;;;;;;5110218;27;20042;-81
2021/09/23 00:30:51;;;;;;;66.00;46.95;;;;;;;;;;5109646;27;20096;-81
2021/09/23 00:33:17;;;;;;;68.05;47.50;;;;;;;;;;5134640;27;20359;-81
2021/09/23 00:35:43;;;;;;;65.85;46.25;;;;;;;;;;5137250;27;20043;-82
2021/09/23 00:38:09;;;;;;;63.28;45.90;;;;;;;;;;5126907;27;20047;-81
2021/09/23 00:40:35;;;;;;;65.80;47.13;;;;;;;;;;5118766;27;20065;-82
2021/09/23 00:43:02;;;;;;;63.75;48.80;;;;;;;;;;5118923;27;20038;-81
2021/09/23 00:45:28;;;;;;;70.85;47.33;;;;;;;;;;5113541;27;20046;-81
2021/09/23 00:47:54;;;;;;;66.72;47.10;;;;;;;;;;5135546;27;20043;-80
2021/09/23 00:50:22;;;;;;;62.28;45.28;;;;;;;;;;5113661;27;20547;-81
2021/09/23 00:52:48;;;;;;;63.22;45.53;;;;;;;;;;5132581;27;20043;-81
2021/09/23 00:55:14;;;;;;;69.65;47.20;;;;;;;;;;5133833;27;20055;-80
2021/09/23 00:57:41;;;;;;;66.03;46.53;;;;;;;;;;5134636;27;20066;-82
2021/09/23 01:00:10;;;;;;;64.03;45.78;;;;;;;;;;5135315;27;20035;-81
2021/09/23 01:02:36;;;;;;;59.63;43.97;;;;;;;;;;5113221;27;20047;-81
2021/09/23 01:05:02;;;;;;;68.70;46.35;;;;;;;;;;5128789;27;20039;-80
2021/09/23 01:07:28;;;;;;;54.60;41.67;;;;;;;;;;5130563;27;20052;-81
2021/09/23 01:09:55;;;;;;;63.90;43.90;;;;;;;;;;5122656;27;20396;-81
2021/09/23 01:12:22;;;;;;;56.90;42.22;;;;;;;;;;5106834;27;20047;-81
2021/09/23 01:14:48;;;;;;;61.75;43.53;;;;;;;;;;5122111;27;20051;-82
2021/09/23 01:17:15;;;;;;;60.78;43.45;;;;;;;;;;5106988;27;20099;-81
2021/09/23 01:19:42;;;;;;;60.83;43.05;;;;;;;;;;5106662;27;20050;-81
2021/09/23 01:22:08;;;;;;;64.80;42.63;;;;;;;;;;5128096;27;20111;-81
2021/09/23 01:24:36;;;;;;;61.17;42.83;;;;;;;;;;5113904;27;20051;-81
2021/09/23 01:27:02;;;;;;;60.50;43.58;;;;;;;;;;5124190;27;20477;-81
2021/09/23 01:29:28;;;;;;;70.38;47.08;;;;;;;;;;5134543;27;20042;-81
2021/09/23 01:31:54;;;;;;;63.63;46.67;;;;;;;;;;5117370;27;20049;-81
2021/09/23 01:34:20;;;;;;;65.07;43.70;;;;;;;;;;5117000;27;20504;-82
2021/09/23 01:36:46;;;;;;;68.45;45.88;;;;;;;;;;5134542;27;20071;-81
2021/09/23 01:39:23;;;;;;;69.78;47.80;;;;;;;;;;5115842;27;20047;-81
2021/09/23 01:41:49;;;;;;;68.13;46.78;;;;;;;;;;5120020;27;20053;-81
2021/09/23 01:44:16;;;;;;;70.00;47.67;;;;;;;;;;5117496;27;20442;-81
2021/09/23 01:46:42;;;;;;;74.20;48.83;;;;;;;;;;5112367;27;20134;-82
2021/09/23 01:49:08;;;;;;;78.47;51.45;;;;;;;;;;5116057;27;20087;-81
2021/09/23 01:51:34;;;;;;;74.10;49.38;;;;;;;;;;5134435;27;20042;-81
2021/09/23 01:54:00;;;;;;;74.32;50.10;;;;;;;;;;5134797;27;20501;-81
2021/09/23 01:56:26;;;;;;;75.43;49.47;;;;;;;;;;5114034;27;20038;-82
2021/09/23 01:58:53;;;;;;;82.20;52.58;;;;;;;;;;5105580;27;20034;-82
2021/09/23 02:01:19;;;;;;;75.40;50.08;;;;;;;;;;5134756;27;20452;-82
2021/09/23 02:03:45;;;;;;;85.93;53.00;;;;;;;;;;5100777;27;20047;-82
2021/09/23 02:06:11;;;;;;;78.85;51.97;;;;;;;;;;5106696;27;20042;-81
2021/09/23 02:08:37;;;;;;;82.72;52.05;;;;;;;;;;5100115;27;20047;-80
2021/09/23 02:11:05;;;;;;;80.40;53.40;;;;;;;;;;5126672;27;20075;-81
2021/09/23 02:13:31;;;;;;;85.13;53.33;;;;;;;;;;5116528;27;20045;-81
2021/09/23 02:15:57;;;;;;;78.85;50.58;;;;;;;;;;5127539;27;20050;-81
2021/09/23 02:18:23;;;;;;;85.53;51.88;;;;;;;;;;5134215;27;20043;-81
2021/09/23 02:20:49;;;;;;;84.13;52.10;;;;;;;;;;5133850;27;20107;-82
2021/09/23 02:23:15;;;;;;;88.57;53.65;;;;;;;;;;5106126;27;20065;-82
2021/09/23 02:25:41;;;;;;;82.85;52.00;;;;;;;;;;5130825;27;20049;-81
2021/09/23 02:28:07;;;;;;;86.75;53.28;;;;;;;;;;5125791;27;20465;-82
2021/09/23 02:30:34;;;;;;;83.20;52.08;;;;;;;;;;5124776;27;20043;-81
2021/09/23 02:33:00;;;;;;;82.55;51.00;;;;;;;;;;5086648;27;20045;-81
2021/09/23 02:35:26;;;;;;;83.18;51.40;;;;;;;;;;5115125;27;20043;-80
2021/09/23 02:37:52;;;;;;;82.38;53.15;;;;;;;;;;5116565;27;20074;-80
2021/09/23 02:40:18;;;;;;;86.15;53.58;;;;;;;;;;5123335;27;20061;-81
2021/09/23 02:42:44;;;;;;;84.78;52.97;;;;;;;;;;5127017;27;20073;-81
2021/09/23 02:45:12;;;;;;;90.13;52.55;;;;;;;;;;5130715;27;20039;-80
2021/09/23 02:47:38;;;;;;;84.07;50.85;;;;;;;;;;5134438;27;20046;-82
2021/09/23 02:50:05;;;;;;;83.70;52.70;;;;;;;;;;5111350;27;20370;-79
2021/09/23 02:52:31;;;;;;;90.13;54.38;;;;;;;;;;5131445;27;20077;-80
2021/09/23 02:54:57;;;;;;;88.07;54.00;;;;;;;;;;5091697;27;20096;-79
2021/09/23 02:57:23;;;;;;;83.00;51.13;;;;;;;;;;5114895;27;20489;-79
2021/09/23 02:59:50;;;;;;;85.88;53.38;;;;;;;;;;5133397;27;20070;-85
2021/09/23 03:02:16;;;;;;;87.35;51.90;;;;;;;;;;5132606;27;20043;-83
2021/09/23 03:04:42;;;;;;;82.75;52.03;;;;;;;;;;5113777;27;20047;-81
2021/09/23 03:07:08;;;;;;;79.47;49.53;;;;;;;;;;5105653;27;20385;-82
2021/09/23 03:09:34;;;;;;;88.63;51.00;;;;;;;;;;5124312;27;20081;-81
2021/09/23 03:12:00;;;;;;;87.70;51.38;;;;;;;;;;5123430;27;20050;-82
2021/09/23 03:14:26;;;;;;;77.95;49.65;;;;;;;;;;5123704;27;20038;-81
2021/09/23 03:16:52;;;;;;;81.03;53.08;;;;;;;;;;5126605;27;20073;-81
2021/09/23 03:19:19;;;;;;;79.68;51.50;;;;;;;;;;5098550;27;20047;-80
2021/09/23 03:21:45;;;;;;;79.85;52.78;;;;;;;;;;5127455;27;20125;-82
2021/09/23 03:24:11;;;;;;;85.47;53.95;;;;;;;;;;5133442;27;20046;-81
2021/09/23 03:26:39;;;;;;;84.25;52.95;;;;;;;;;;5094635;27;20097;-81
2021/09/23 03:29:06;;;;;;;82.45;50.10;;;;;;;;;;5107945;27;20042;-81
2021/09/23 03:31:33;;;;;;;83.88;52.95;;;;;;;;;;5102751;27;20039;-79
2021/09/23 03:33:59;;;;;;;87.13;53.20;;;;;;;;;;5134317;27;20049;-80
2021/09/23 03:36:26;;;;;;;82.47;51.88;;;;;;;;;;5109501;27;20506;-81
2021/09/23 03:38:55;;;;;;;94.05;54.80;;;;;;;;;;5127697;27;20117;-81
2021/09/23 03:41:22;;;;;;;88.20;54.65;;;;;;;;;;5104603;27;20088;-80
2021/09/23 03:43:48;;;;;;;97.38;54.75;;;;;;;;;;5133122;27;20366;-81
2021/09/23 03:46:14;;;;;;;97.68;54.92;;;;;;;;;;5131053;27;20566;-81
2021/09/23 03:48:40;;;;;;;91.13;54.10;;;;;;;;;;5112361;27;20126;-80
2021/09/23 03:51:06;;;;;;;96.10;55.00;;;;;;;;;;5116853;27;20408;-82
2021/09/23 03:53:38;;;;;;;91.82;54.33;;;;;;;;;;5133133;27;20046;-81
2021/09/23 03:56:04;;;;;;;92.85;56.03;;;;;;;;;;5132667;27;20402;-81
2021/09/23 03:58:30;;;;;;;92.55;55.25;;;;;;;;;;5116657;27;20126;-81
2021/09/23 04:00:56;;;;;;;99.10;57.20;;;;;;;;;;5105994;27;20483;-81
2021/09/23 04:03:22;;;;;;;98.90;57.97;;;;;;;;;;5124312;27;20055;-81
2021/09/23 04:05:50;;;;;;;97.43;57.92;;;;;;;;;;5096880;27;20264;-81
2021/09/23 04:08:16;;;;;;;96.47;55.17;;;;;;;;;;5091394;28;20100;-81
2021/09/23 04:10:42;;;;;;;96.20;56.75;;;;;;;;;;5125253;27;20118;-79
2021/09/23 04:13:09;;;;;;;101.35;59.42;;;;;;;;;;5110966;27;20058;-82
2021/09/23 04:15:35;;;;;;;101.65;56.97;;;;;;;;;;5094963;27;20129;-80
2021/09/23 04:18:02;;;;;;;103.85;59.83;;;;;;;;;;5132393;27;20478;-80
2021/09/23 04:20:28;;;;;;;106.20;60.63;;;;;;;;;;5132393;27;20134;-80
2021/09/23 04:22:54;;;;;;;109.05;61.53;;;;;;;;;;5130506;27;20043;-81
2021/09/23 04:25:20;;;;;;;107.72;62.10;;;;;;;;;;5112569;27;20096;-87
2021/09/23 04:27:46;;;;;;;106.97;61.17;;;;;;;;;;5110420;28;20040;-79
2021/09/23 04:30:12;;;;;;;107.53;61.40;;;;;;;;;;5095695;28;20062;-80
2021/09/23 04:32:38;;;;;;;119.07;65.03;;;;;;;;;;5120666;27;20728;-80
2021/09/23 04:35:05;;;;;;;104.47;64.07;;;;;;;;;;5127091;27;20051;-80
2021/09/23 04:37:31;;;;;;;111.93;63.15;;;;;;;;;;5111810;27;20066;-82
2021/09/23 04:39:57;;;;;;;110.75;63.08;;;;;;;;;;5127335;27;20043;-80
2021/09/23 04:42:23;;;;;;;119.47;66.57;;;;;;;;;;5087928;27;20027;-81
2021/09/23 04:44:49;;;;;;;112.38;63.65;;;;;;;;;;5124302;27;20118;-82
2021/09/23 04:47:15;;;;;;;114.80;67.72;;;;;;;;;;5122350;27;20092;-81
2021/09/23 04:49:44;;;;;;;125.93;67.05;;;;;;;;;;5115570;27;20046;-82
2021/09/23 04:52:10;;;;;;;144.52;73.07;;;;;;;;;;5106100;27;20096;-79
2021/09/23 04:54:36;;;;;;;133.68;72.28;;;;;;;;;;5120404;27;20397;-80
2021/09/23 04:57:02;;;;;;;133.50;70.20;;;;;;;;;;5122329;27;20111;-80
2021/09/23 04:59:28;;;;;;;145.02;74.57;;;;;;;;;;5121708;27;20088;-80
2021/09/23 05:01:54;;;;;;;147.45;74.38;;;;;;;;;;5123112;27;20054;-80
2021/09/23 05:04:21;;;;;;;144.50;75.50;;;;;;;;;;5107080;27;20046;-81
2021/09/23 05:06:47;;;;;;;140.70;75.22;;;;;;;;;;5113329;27;20050;-81
2021/09/23 05:09:13;;;;;;;144.20;76.63;;;;;;;;;;5097383;27;20057;-81
2021/09/23 05:11:39;;;;;;;139.35;73.07;;;;;;;;;;5118172;27;20489;-81
2021/09/23 05:14:05;;;;;;;146.52;72.22;;;;;;;;;;5121264;27;20047;-82
2021/09/23 05:16:31;;;;;;;153.63;79.30;;;;;;;;;;5106669;27;20047;-81
2021/09/23 05:18:58;;;;;;;136.38;72.00;;;;;;;;;;5134434;27;20046;-81
2021/09/23 05:21:24;;;;;;;148.15;76.20;;;;;;;;;;5114965;27;20051;-80
2021/09/23 05:23:50;;;;;;;138.90;72.18;;;;;;;;;;5117859;27;20127;-81
2021/09/23 05:26:16;;;;;;;158.02;77.78;;;;;;;;;;5117751;27;20074;-81
2021/09/23 05:28:42;;;;;;;140.68;73.85;;;;;;;;;;5110341;27;20034;-81
2021/09/23 05:31:08;;;;;;;141.00;74.20;;;;;;;;;;5134329;27;20421;-80
2021/09/23 05:33:34;;;;;;;146.50;74.70;;;;;;;;;;5125377;27;20374;-81
2021/09/23 05:36:00;;;;;;;155.18;78.22;;;;;;;;;;5129422;27;20487;-83
2021/09/23 05:38:26;;;;;;;171.10;79.78;;;;;;;;;;5102548;27;20042;-79
2021/09/23 05:40:53;;;;;;;166.55;80.82;;;;;;;;;;5132030;27;20098;-80
2021/09/23 05:43:19;;;;;;;177.27;82.78;;;;;;;;;;5134567;27;20061;-80
2021/09/23 05:45:45;;;;;;;190.70;85.07;;;;;;;;;;5114218;27;20277;-80
2021/09/23 05:48:11;;;;;;;173.65;82.15;;;;;;;;;;5105133;27;20072;-80
2021/09/23 05:50:37;;;;;;;168.38;81.00;;;;;;;;;;5133850;27;20043;-79
2021/09/23 05:53:03;;;;;;;185.18;87.32;;;;;;;;;;5134068;27;20031;-80
2021/09/23 05:55:30;;;;;;;189.43;87.53;;;;;;;;;;5110140;27;20050;-80
2021/09/23 05:57:56;;;;;;;179.00;83.72;;;;;;;;;;5133612;27;20038;-81
2021/09/23 06:00:22;;;;;;;191.57;83.78;;;;;;;;;;5107230;27;20064;-80
2021/09/23 06:02:48;;;;;;;168.38;79.30;;;;;;;;;;5099811;27;20130;-81
2021/09/23 06:05:15;;;;;;;182.73;86.05;;;;;;;;;;5117565;27;20401;-80
2021/09/23 06:07:42;;;;;;;183.35;83.88;;;;;;;;;;5131106;27;20049;-81
2021/09/23 06:10:08;;;;;;;181.15;79.28;;;;;;;;;;5122524;27;20072;-80
2021/09/23 06:12:35;;;;;;;192.02;84.40;;;;;;;;;;5112202;27;20154;-80
2021/09/23 06:15:01;;;;;;;184.27;84.45;;;;;;;;;;5110335;27;20054;-79
2021/09/23 06:17:27;;;;;;;182.13;82.25;;;;;;;;;;5119140;27;20404;-79
2021/09/23 06:19:53;;;;;;;172.70;79.82;;;;;;;;;;5083708;27;20390;-80
2021/09/23 06:22:19;;;;;;;179.20;80.72;;;;;;;;;;5115175;27;20039;-79
2021/09/23 06:24:46;;;;;;;180.38;82.82;;;;;;;;;;5110640;27;20070;-79
2021/09/23 06:27:12;;;;;;;198.50;85.38;;;;;;;;;;5073579;27;20043;-79
2021/09/23 06:29:38;;;;;;;164.48;76.75;;;;;;;;;;5103211;27;20046;-79
2021/09/23 06:32:04;;;;;;;173.02;79.93;;;;;;;;;;5096065;27;20041;-78
2021/09/23 06:34:30;;;;;;;184.45;82.18;;;;;;;;;;5108875;27;20153;-79
2021/09/23 06:36:56;;;;;;;179.63;82.10;;;;;;;;;;5122182;27;20154;-80
2021/09/23 06:39:22;;;;;;;155.93;74.63;;;;;;;;;;5110232;27;20509;-80
2021/09/23 06:41:48;;;;;;;180.77;81.82;;;;;;;;;;5103971;27;20052;-79
2021/09/23 06:44:14;;;;;;;165.35;75.60;;;;;;;;;;5132451;27;20043;-79
2021/09/23 06:46:41;;;;;;;156.55;76.45;;;;;;;;;;5132044;27;20039;-79
2021/09/23 06:49:07;;;;;;;150.68;75.65;;;;;;;;;;5117698;27;20034;-80
2021/09/23 06:51:33;;;;;;;136.63;70.38;;;;;;;;;;5132234;27;20049;-80
2021/09/23 06:53:59;;;;;;;122.95;66.28;;;;;;;;;;5113584;27;20497;-80
2021/09/23 06:56:25;;;;;;;113.50;62.30;;;;;;;;;;5113773;27;20144;-83
2021/09/23 06:58:51;;;;;;;108.13;60.97;;;;;;;;;;5105705;27;20382;-80
2021/09/23 07:01:17;;;;;;;103.38;57.63;;;;;;;;;;5117144;27;20050;-81
2021/09/23 07:03:43;;;;;;;94.90;52.60;;;;;;;;;;5103613;27;20058;-81
2021/09/23 07:06:09;;;;;;;88.95;49.38;;;;;;;;;;5095533;27;20054;-80
2021/09/23 07:08:35;;;;;;;89.78;49.50;;;;;;;;;;5104122;27;20042;-81
2021/09/23 07:11:03;;;;;;;66.07;39.20;;;;;;;;;;5113299;27;20043;-80
2021/09/23 07:13:30;;;;;;;54.50;32.35;;;;;;;;;;5115400;27;20051;-80
2021/09/23 07:15:59;;;;;;;42.67;23.95;;;;;;;;;;5106135;27;20144;-80
2021/09/23 07:18:25;;;;;;;28.65;16.98;;;;;;;;;;5102574;27;20074;-80
2021/09/23 07:20:51;;;;;;;19.60;12.80;;;;;;;;;;5098729;27;20560;-80
2021/09/23 07:23:17;;;;;;;18.00;10.93;;;;;;;;;;5114619;27;20039;-81
2021/09/23 07:25:43;;;;;;;16.92;8.52;;;;;;;;;;5114440;27;21925;-81
2021/09/23 07:28:15;;;;;;;17.27;7.88;;;;;;;;;;5104837;27;20047;-81
2021/09/23 07:30:41;;;;;;;14.73;7.93;;;;;;;;;;5112551;27;20055;-81
2021/09/23 07:33:07;;;;;;;14.40;6.82;;;;;;;;;;5100931;27;20126;-81
2021/09/23 07:35:34;;;;;;;8.77;5.32;;;;;;;;;;5099790;27;20046;-81
2021/09/23 07:38:01;;;;;;;11.30;5.35;;;;;;;;;;5110878;27;20050;-80
2021/09/23 07:40:27;;;;;;;11.30;5.60;;;;;;;;;;5114630;27;20039;-80
2021/09/23 07:42:53;;;;;;;9.57;5.20;;;;;;;;;;5105298;27;20049;-80
2021/09/23 07:45:19;;;;;;;11.73;4.93;;;;;;;;;;5114026;27;20059;-80
2021/09/23 07:47:45;;;;;;;12.27;5.00;;;;;;;;;;5119255;27;20142;-80
2021/09/23 07:50:11;;;;;;;9.73;4.90;;;;;;;;;;5107626;27;20521;-80
2021/09/23 07:52:39;;;;;;;12.38;4.05;;;;;;;;;;5112555;27;20367;-80
2021/09/23 07:55:05;;;;;;;10.95;4.55;;;;;;;;;;5105083;27;20050;-81
2021/09/23 07:57:32;;;;;;;7.10;4.22;;;;;;;;;;5105845;27;20124;-80
2021/09/23 07:59:58;;;;;;;10.52;4.13;;;;;;;;;;5110274;27;20062;-81
2021/09/23 08:02:24;;;;;;;10.30;4.40;;;;;;;;;;5119439;27;20133;-81
2021/09/23 08:04:50;;;;;;;5.35;3.28;;;;;;;;;;5101135;27;20051;-81
2021/09/23 08:07:17;;;;;;;12.07;3.85;;;;;;;;;;5119819;27;20054;-80
2021/09/23 08:09:43;;;;;;;5.90;3.75;;;;;;;;;;5103974;27;20043;-81
2021/09/23 08:12:10;;;;;;;8.63;3.38;;;;;;;;;;5113585;27;20050;-81
2021/09/23 08:14:37;;;;;;;6.88;3.17;;;;;;;;;;5103723;27;20108;-80
2021/09/23 08:17:04;;;;;;;5.50;3.25;;;;;;;;;;5097610;27;20051;-82
2021/09/23 08:19:31;;;;;;;6.00;3.25;;;;;;;;;;5130726;27;20071;-80
2021/09/23 08:21:57;;;;;;;7.18;3.53;;;;;;;;;;5116951;27;20470;-80
2021/09/23 08:24:23;;;;;;;9.32;3.15;;;;;;;;;;5118971;27;20047;-79
2021/09/23 08:26:49;;;;;;;8.85;3.38;;;;;;;;;;5102971;27;20379;-80
2021/09/23 08:29:16;;;;;;;8.32;3.20;;;;;;;;;;5103400;27;20043;-81
2021/09/23 08:31:42;;;;;;;8.32;3.08;;;;;;;;;;5105980;27;20088;-80
2021/09/23 08:34:08;;;;;;;10.50;3.40;;;;;;;;;;5107391;27;20055;-80
2021/09/23 08:36:34;;;;;;;7.15;2.83;;;;;;;;;;5106928;27;20039;-80
2021/09/23 08:39:00;;;;;;;7.57;2.95;;;;;;;;;;5119543;27;20490;-80
2021/09/23 08:41:27;;;;;;;9.77;3.17;;;;;;;;;;5119272;27;20084;-80
2021/09/23 08:43:54;;;;;;;8.50;2.83;;;;;;;;;;5117692;27;20038;-80
2021/09/23 08:46:21;;;;;;;8.40;2.72;;;;;;;;;;5106955;27;20091;-79
2021/09/23 08:48:48;;;;;;;8.77;2.67;;;;;;;;;;5114507;27;20493;-79
2021/09/23 08:51:15;;;;;;;13.68;2.90;;;;;;;;;;5105582;27;20043;-80
2021/09/23 08:53:41;;;;;;;11.88;3.75;;;;;;;;;;5117313;27;20096;-80
2021/09/23 08:56:14;;;;;;;8.18;2.85;;;;;;;;;;5111716;27;20440;-84
2021/09/23 08:58:40;;;;;;;13.27;2.70;;;;;;;;;;5110323;27;20047;-82
2021/09/23 09:01:13;;;;;;;10.27;2.20;;;;;;;;;;5120883;27;20043;-82
2021/09/23 09:03:39;;;;;;;12.38;3.05;;;;;;;;;;5117517;27;20126;-84
2021/09/23 09:06:09;;;;;;;9.55;2.10;;;;;;;;;;5113646;27;20103;-82
2021/09/23 09:08:37;;;;;;;10.50;2.17;;;;;;;;;;5128338;27;20485;-83
2021/09/23 09:11:03;;;;;;;;;;;;;;;;;;5112891;27;20051;-76
2021/09/23 09:13:28;;;;;;;;;;;;;;;;;;5129152;27;20405;-76
2021/09/23 09:15:56;;;;;;;12.20;2.45;;;;;;;;;;5131886;27;20285;-80
2021/09/23 09:18:22;;;;;;;;;;;;;;;;;;5115214;27;20064;-87
2021/09/23 09:20:48;;;;;;;;;;;;;;;;;;5126671;27;19927;-75
2021/09/23 09:23:14;;;;;;;;;;;;;;;;;;5105673;27;19926;-81
2021/09/23 09:25:40;;;;;;;;;;;;;;;;;;5110341;27;20009;-80
2021/09/23 09:28:07;;;;;;;10.73;2.38;;;;;;;;;;5113027;27;19919;-78
2021/09/23 09:30:33;;;;;;;;;;;;;;;;;;5136222;27;20076;-77
2021/09/23 09:32:59;;;;;;;;;;;;;;;;;;5121801;27;19923;-77
2021/09/23 09:35:26;;;;;;;;;;;;;;;;;;5135387;27;20034;-78
2021/09/23 09:37:52;;;;;;;;;;;;;;;;;;5134306;27;20362;-76
2021/09/23 09:40:19;;;;;;;11.13;2.25;;;;;;;;;;5135897;27;19965;-77
2021/09/23 09:42:47;;;;;;;14.52;2.97;;;;;;;;;;5136069;27;20043;-78
2021/09/23 09:45:17;;;;;;;12.90;3.10;;;;;;;;;;5135651;27;20092;-77
2021/09/23 09:47:48;;;;;;;8.52;1.98;;;;;;;;;;5136294;27;20081;-77
2021/09/23 09:50:15;;;;;;;9.50;2.25;;;;;;;;;;5136004;27;20042;-77
2021/09/23 09:52:49;;;;;;;9.05;2.30;;;;;;;;;;5133418;27;20038;-79
2021/09/23 09:55:15;;;;;;;10.32;2.50;;;;;;;;;;5119516;27;20446;-80
2021/09/23 09:57:45;;;;;;;11.07;2.15;;;;;;;;;;5123695;27;20058;-78
2021/09/23 10:00:12;;;;;;;7.18;1.80;;;;;;;;;;5131557;27;20041;-78
2021/09/23 10:02:38;;;;;;;11.80;2.47;;;;;;;;;;5109861;27;20078;-78
2021/09/23 10:05:04;;;;;;;11.95;2.40;;;;;;;;;;5127861;27;20049;-79
2021/09/23 10:07:32;;;;;;;13.90;2.50;;;;;;;;;;5127397;27;20043;-78
2021/09/23 10:09:58;;;;;;;10.15;2.28;;;;;;;;;;5133413;27;20031;-78
2021/09/23 10:12:26;;;;;;;9.60;2.72;;;;;;;;;;5119873;27;20051;-78
2021/09/23 10:14:52;;;;;;;11.02;2.80;;;;;;;;;;5113914;27;20118;-79
2021/09/23 10:17:19;;;;;;;10.10;2.33;;;;;;;;;;5124886;27;20042;-79
2021/09/23 10:19:45;;;;;;;11.43;2.30;;;;;;;;;;5124571;27;20074;-77
2021/09/23 10:22:13;;;;;;;10.30;2.20;;;;;;;;;;5114573;27;20063;-78
2021/09/23 10:24:40;;;;;;;13.18;2.78;;;;;;;;;;5133507;27;20043;-78
2021/09/23 10:27:57;;;;;;;11.85;3.05;;;;;;;;;;5130499;27;20082;-77
2021/09/23 10:29:53;;;;;;;9.38;2.15;;;;;;;;;;5132482;27;20426;-78
2021/09/23 10:32:20;;;;;;;9.63;2.70;;;;;;;;;;5094465;27;20104;-78
2021/09/23 10:34:46;;;;;;;11.90;2.50;;;;;;;;;;5128304;27;20079;-78
2021/09/23 10:37:13;;;;;;;14.73;2.85;;;;;;;;;;5130984;27;20057;-79
2021/09/23 10:39:40;;;;;;;16.42;3.10;;;;;;;;;;5131306;27;20054;-79
2021/09/23 10:42:07;;;;;;;12.75;2.53;;;;;;;;;;5129387;27;20078;-79
2021/09/23 10:44:34;;;;;;;12.82;3.00;;;;;;;;;;5130676;27;20463;-78
2021/09/23 10:47:00;;;;;;;15.25;2.70;;;;;;;;;;5115102;27;20078;-79
2021/09/23 10:49:26;;;;;;;15.55;3.03;;;;;;;;;;5131824;27;20071;-78
2021/09/23 10:51:54;;;;;;;10.65;2.45;;;;;;;;;;5126347;27;20038;-78
2021/09/23 10:54:23;;;;;;;12.70;2.90;;;;;;;;;;5113279;27;20039;-82
2021/09/23 10:56:50;;;;;;;14.45;2.50;;;;;;;;;;5110623;27;20548;-81
2021/09/23 10:59:17;;;;;;;13.50;3.15;;;;;;;;;;5128573;27;20377;-82
2021/09/23 11:01:44;;;;;;;15.57;2.80;;;;;;;;;;5114170;27;20117;-81
2021/09/23 11:04:11;;;;;;;13.02;3.05;;;;;;;;;;5131310;27;20077;-81
2021/09/23 11:06:39;;;;;;;15.77;3.45;;;;;;;;;;5104738;27;20037;-82
2021/09/23 11:09:18;;;;;;;12.00;3.05;;;;;;;;;;5111426;27;20485;-81
2021/09/23 11:11:58;;;;;;;13.50;3.38;;;;;;;;;;5106132;27;20051;-79
2021/09/23 11:14:27;;;;;;;20.13;3.65;;;;;;;;;;5108914;27;20400;-79
2021/09/23 11:16:54;;;;;;;14.20;3.28;;;;;;;;;;5131671;27;20072;-80
2021/09/23 11:19:22;;;;;;;12.95;3.33;;;;;;;;;;5131843;27;20099;-79
2021/09/23 11:21:49;;;;;;;18.30;3.60;;;;;;;;;;5128235;27;20135;-80
2021/09/23 11:24:16;;;;;;;9.60;2.90;;;;;;;;;;5112618;27;20112;-79
2021/09/23 11:26:42;;;;;;;12.73;2.80;;;;;;;;;;5132596;27;20038;-80
2021/09/23 11:29:08;;;;;;;14.80;3.33;;;;;;;;;;5097223;27;20047;-77
2021/09/23 11:31:50;;;;;;;13.82;2.70;;;;;;;;;;5112192;27;20037;-79
2021/09/23 11:34:37;;;;;;;14.02;2.90;;;;;;;;;;5121722;27;20057;-79
2021/09/23 11:37:04;;;;;;;12.38;2.55;;;;;;;;;;5132260;27;20115;-79
2021/09/23 11:39:30;;;;;;;12.63;2.45;;;;;;;;;;5130930;27;20076;-79
2021/09/23 11:42:10;;;;;;;15.85;3.05;;;;;;;;;;5107496;28;20047;-80
2021/09/23 11:44:36;;;;;;;8.02;2.55;;;;;;;;;;5120719;28;20072;-79
2021/09/23 11:47:02;;;;;;;14.50;2.88;;;;;;;;;;5105573;28;20436;-79
2021/09/23 11:49:29;;;;;;;12.70;2.97;;;;;;;;;;5118795;27;20066;-79
2021/09/23 11:51:56;;;;;;;7.88;2.60;;;;;;;;;;5124979;27;20526;-79
2021/09/23 11:54:22;;;;;;;13.70;2.92;;;;;;;;;;5104325;28;20047;-78
2021/09/23 11:56:48;;;;;;;15.15;2.53;;;;;;;;;;5133558;27;20677;-79
2021/09/23 11:59:25;;;;;;;10.68;2.53;;;;;;;;;;5134603;27;20062;-79
2021/09/23 12:02:05;;;;;;;13.82;2.70;;;;;;;;;;5128234;27;20051;-77
2021/09/23 12:04:34;;;;;;;11.25;2.85;;;;;;;;;;5080573;27;20073;-82
2021/09/23 12:07:07;;;;;;;9.38;2.28;;;;;;;;;;5127333;27;20038;-85
2021/09/23 12:09:33;;;;;;;9.15;2.63;;;;;;;;;;5089426;27;20081;-79
2021/09/23 12:12:00;;;;;;;15.32;3.08;;;;;;;;;;5135895;27;20431;-82
2021/09/23 12:14:26;;;;;;;8.38;2.70;;;;;;;;;;5136457;27;20367;-80
2021/09/23 12:17:02;;;;;;;14.23;3.67;;;;;;;;;;5120864;27;20034;-79
2021/09/23 12:19:28;;;;;;;12.38;2.70;;;;;;;;;;5129841;27;20039;-79
2021/09/23 12:21:55;;;;;;;11.90;2.78;;;;;;;;;;5137862;27;20042;-78
2021/09/23 12:24:35;;;;;;;19.58;2.85;;;;;;;;;;5136534;27;20354;-77
2021/09/23 12:27:01;;;;;;;9.52;2.60;;;;;;;;;;5123566;27;20058;-77
2021/09/23 12:29:27;;;;;;;7.57;2.42;;;;;;;;;;5114134;27;20048;-77
2021/09/23 12:32:04;;;;;;;9.05;2.15;;;;;;;;;;5107939;27;20403;-80
2021/09/23 12:34:31;;;;;;;9.50;3.00;;;;;;;;;;5135065;27;20538;-80
2021/09/23 12:37:03;;;;;;;9.88;2.55;;;;;;;;;;5114673;27;20045;-81
2021/09/23 12:39:39;;;;;;;12.57;3.00;;;;;;;;;;5119429;27;20511;-78
2021/09/23 12:42:07;;;;;;;9.77;2.35;;;;;;;;;;5136786;27;20046;-81
2021/09/23 12:44:34;;;;;;;10.77;2.45;;;;;;;;;;5117238;27;20058;-80
2021/09/23 12:47:13;;;;;;;9.40;2.40;;;;;;;;;;5135456;27;20118;-80
2021/09/23 12:49:44;;;;;;;15.50;2.90;;;;;;;;;;5136699;27;20057;-77
2021/09/23 12:52:15;;;;;;;10.13;2.47;;;;;;;;;;5134693;27;20389;-81
2021/09/23 12:54:55;;;;;;;12.48;2.30;;;;;;;;;;5136320;27;20427;-77
2021/09/23 12:57:24;;;;;;;13.23;2.95;;;;;;;;;;5135975;27;20046;-77
2021/09/23 12:59:50;;;;;;;11.48;2.35;;;;;;;;;;5130360;27;20047;-78
2021/09/23 13:02:21;;;;;;;12.40;3.08;;;;;;;;;;5135319;27;20065;-82
2021/09/23 13:05:03;;;;;;;10.57;2.42;;;;;;;;;;5113982;27;20043;-76
2021/09/23 13:07:29;;;;;;;11.95;2.53;;;;;;;;;;5128151;27;20375;-76
2021/09/23 13:10:05;;;;;;;16.38;2.78;;;;;;;;;;5118251;27;20053;-76
2021/09/23 13:12:41;;;;;;;12.88;2.47;;;;;;;;;;5117386;27;20059;-75
2021/09/23 13:15:19;;;;;;;11.52;2.65;;;;;;;;;;5135783;27;20147;-76
2021/09/23 13:17:55;;;;;;;12.35;3.00;;;;;;;;;;5118988;27;20088;-76
2021/09/23 13:20:21;;;;;;;12.00;2.70;;;;;;;;;;5118697;27;20436;-76
2021/09/23 13:22:47;;;;;;;12.38;2.70;;;;;;;;;;5154282;27;20043;-76
2021/09/23 13:25:13;;;;;;;10.27;2.67;;;;;;;;;;5136168;27;20457;-75
2021/09/23 13:27:41;;;;;;;13.32;3.38;;;;;;;;;;5137565;27;20043;-75
2021/09/23 13:30:11;;;;;;;11.57;2.70;;;;;;;;;;5136412;27;20072;-75
2021/09/23 13:32:38;;;;;;;25.92;3.25;;;;;;;;;;5135410;27;20051;-75
2021/09/23 13:35:04;;;;;;;12.32;3.10;;;;;;;;;;5136492;27;20034;-76
2021/09/23 13:37:30;;;;;;;13.10;3.15;;;;;;;;;;5134309;27;20091;-75
2021/09/23 13:39:57;;;;;;;10.18;2.88;;;;;;;;;;5149133;27;20051;-76
2021/09/23 13:42:23;;;;;;;9.88;3.33;;;;;;;;;;5124532;27;20046;-76
2021/09/23 13:44:49;;;;;;;13.40;3.20;;;;;;;;;;5128853;27;20112;-76
2021/09/23 13:47:15;;;;;;;11.93;2.65;;;;;;;;;;5132214;27;20500;-75
2021/09/23 13:49:41;;;;;;;13.65;3.40;;;;;;;;;;5118952;27;20074;-77
2021/09/23 13:52:07;;;;;;;12.95;3.22;;;;;;;;;;5131155;27;20035;-79
2021/09/23 13:54:34;;;;;;;14.85;3.00;;;;;;;;;;5132245;27;20114;-78
2021/09/23 13:57:01;;;;;;;20.27;4.25;;;;;;;;;;5134792;27;20054;-78
2021/09/23 13:59:27;;;;;;;19.83;3.58;;;;;;;;;;5134324;27;20047;-78
2021/09/23 14:01:53;;;;;;;15.43;3.10;;;;;;;;;;5136217;27;20047;-79
2021/09/23 14:04:19;;;;;;;16.52;3.70;;;;;;;;;;5114692;27;20051;-77
2021/09/23 14:06:45;;;;;;;17.70;3.72;;;;;;;;;;5125549;27;20121;-80
2021/09/23 14:09:11;;;;;;;18.30;3.95;;;;;;;;;;5115360;27;20054;-77
2021/09/23 14:11:37;;;;;;;12.38;3.20;;;;;;;;;;5130361;27;20062;-75
2021/09/23 14:14:03;;;;;;;15.52;3.50;;;;;;;;;;5101913;27;20039;-75
2021/09/23 14:16:29;;;;;;;12.85;3.60;;;;;;;;;;5118106;27;20553;-75
2021/09/23 14:18:55;;;;;;;15.23;3.63;;;;;;;;;;5115984;27;20042;-75
2021/09/23 14:21:21;;;;;;;20.40;3.22;;;;;;;;;;5126863;27;20043;-75
2021/09/23 14:23:48;;;;;;;15.70;4.25;;;;;;;;;;5132505;27;20058;-76
2021/09/23 14:26:16;;;;;;;10.85;3.08;;;;;;;;;;5132846;27;20042;-75